Time;durP1;ratioP1;P1;durP2;ratioP2;P2;SDS_P1;SDS_P2;PMS_P1;PMS_P2;Temp;Humidity;BMP_temperature;BMP_pressure;BME280_temperature;BME280_humidity;BME280_pressure;Samples;Min_cycle;Max_cycle;Signal;HPM_P1;HPM_P2
2021/09/21 00:01:29;;;;;;;7.53;4.45;;;;;;;11.37;82.61;102738.75;4966829;28;21020;-57
2021/09/21 00:03:56;;;;;;;8.82;3.92;;;;;;;11.28;84.62;102745.47;4968945;28;20062;-59
2021/09/21 00:06:23;;;;;;;6.53;4.10;;;;;;;11.21;84.67;102746.84;4974445;28;20077;-59
2021/09/21 00:08:49;;;;;;;7.10;4.60;;;;;;;11.12;84.50;102741.38;4971993;28;20590;-59
2021/09/21 00:11:16;;;;;;;9.63;3.78;;;;;;;11.12;84.76;102747.47;4972331;28;20121;-58
2021/09/21 00:13:43;;;;;;;10.25;3.92;;;;;;;11.11;83.84;102748.38;4971869;28;20404;-58
2021/09/21 00:16:09;;;;;;;9.35;4.03;;;;;;;11.13;84.36;102745.66;4972983;28;20133;-58
2021/09/21 00:18:36;;;;;;;6.03;3.90;;;;;;;11.14;83.92;102747.34;4978560;28;20054;-59
2021/09/21 00:21:03;;;;;;;6.93;3.72;;;;;;;11.11;84.20;102748.38;4967105;28;20598;-60
2021/09/21 00:23:30;;;;;;;5.75;3.22;;;;;;;11.13;83.72;102753.53;4974868;28;20054;-60
2021/09/21 00:25:57;;;;;;;6.30;3.67;;;;;;;11.10;82.75;102730.97;4962280;28;20145;-58
2021/09/21 00:28:24;;;;;;;10.73;3.95;;;;;;;11.07;82.93;102739.03;4970699;28;20494;-60
2021/09/21 00:30:52;;;;;;;8.38;4.30;;;;;;;11.05;83.81;102743.53;4971928;28;20146;-57
2021/09/21 00:33:22;;;;;;;8.05;3.50;;;;;;;11.05;82.58;102740.91;4966950;28;20165;-58
2021/09/21 00:35:51;;;;;;;6.93;4.20;;;;;;;10.99;83.32;102747.41;4973992;28;20692;-60
2021/09/21 00:38:18;;;;;;;;;;;;;;;10.87;85.09;102742.97;4971773;28;20508;-59
2021/09/21 00:40:45;;;;;;;9.02;4.05;;;;;;;10.81;85.37;102740.78;4963724;28;20342;-58
2021/09/21 00:43:12;;;;;;;7.90;4.30;;;;;;;10.77;85.30;102748.00;4962784;28;20681;-57
2021/09/21 00:45:40;;;;;;;7.13;3.92;;;;;;;10.68;86.45;102748.59;4973310;28;20104;-56
2021/09/21 00:48:07;;;;;;;7.38;3.70;;;;;;;10.67;86.66;102741.69;4974618;28;20247;-59
2021/09/21 00:50:35;;;;;;;6.03;3.25;;;;;;;10.64;86.14;102752.34;4962079;28;20309;-58
2021/09/21 00:53:01;;;;;;;7.95;4.00;;;;;;;10.65;86.50;102746.19;4973654;28;20046;-59
2021/09/21 00:55:29;;;;;;;7.35;3.88;;;;;;;10.59;87.36;102750.03;4962500;28;20110;-59
2021/09/21 00:57:56;;;;;;;8.43;3.83;;;;;;;10.60;87.00;102753.50;4976166;28;20069;-60
2021/09/21 01:00:22;;;;;;;11.20;4.15;;;;;;;10.61;85.68;102760.44;4969955;28;20261;-60
2021/09/21 01:02:49;;;;;;;6.53;3.50;;;;;;;10.53;86.42;102763.56;4977639;28;20145;-60
2021/09/21 01:05:16;;;;;;;7.97;3.80;;;;;;;10.52;87.22;102771.53;4977901;28;20050;-60
2021/09/21 01:07:43;;;;;;;8.20;3.53;;;;;;;10.50;86.61;102769.00;4966269;28;20081;-60
2021/09/21 01:10:17;;;;;;;7.33;3.57;;;;;;;10.47;87.44;102775.28;4971906;28;20142;-59
2021/09/21 01:12:44;;;;;;;6.85;3.90;;;;;;;10.49;87.24;102775.19;4971341;28;20109;-60
2021/09/21 01:15:12;;;;;;;8.60;4.20;;;;;;;10.52;87.48;102780.22;4980333;28;20078;-60
2021/09/21 01:17:40;;;;;;;10.90;4.70;;;;;;;10.55;87.12;102780.06;4971897;28;20134;-59
2021/09/21 01:20:08;;;;;;;8.93;3.80;;;;;;;10.60;86.06;102775.34;4979237;28;20567;-58
2021/09/21 01:22:35;;;;;;;7.78;3.88;;;;;;;10.60;86.15;102777.94;4976595;28;20642;-60
2021/09/21 01:25:03;;;;;;;7.85;4.65;;;;;;;10.62;85.95;102775.25;4969617;28;20058;-57
2021/09/21 01:27:29;;;;;;;7.50;4.30;;;;;;;10.63;85.50;102772.53;4976695;28;20485;-58
2021/09/21 01:29:56;;;;;;;9.35;4.53;;;;;;;10.59;86.27;102765.78;4970879;28;20659;-60
2021/09/21 01:32:22;;;;;;;7.57;4.60;;;;;;;10.63;85.67;102763.81;4975789;28;20133;-58
2021/09/21 01:34:49;;;;;;;7.78;4.30;;;;;;;10.57;85.33;102759.81;4971614;28;20587;-58
2021/09/21 01:37:16;;;;;;;7.85;4.28;;;;;;;10.57;85.87;102758.97;4969196;28;20055;-58
2021/09/21 01:39:43;;;;;;;10.35;4.78;;;;;;;10.57;86.22;102751.09;4976547;28;20173;-60
2021/09/21 01:42:10;;;;;;;6.55;3.85;;;;;;;10.51;86.52;102751.50;4970711;28;20161;-59
2021/09/21 01:44:37;;;;;;;8.52;4.70;;;;;;;10.42;87.16;102752.91;4978535;28;20129;-60
2021/09/21 01:47:05;;;;;;;8.10;4.93;;;;;;;10.38;87.97;102751.44;4970186;28;20138;-60
2021/09/21 01:50:01;;;;;;;9.60;5.15;;;;;;;10.32;87.39;102750.03;4977175;28;20085;-60
2021/09/21 01:52:51;;;;;;;11.57;4.78;;;;;;;10.25;88.89;102743.44;4965860;28;20050;-60
2021/09/21 01:58:45;;;;;;;7.00;4.60;;;;;;;10.22;86.86;102736.63;4972265;28;20151;-59
2021/09/21 02:01:01;;;;;;;6.78;4.43;;;;;;;10.15;89.01;102729.25;4979616;28;20508;-60
2021/09/21 02:03:28;;;;;;;7.63;4.72;;;;;;;10.14;89.70;102735.44;4969580;28;20046;-59
2021/09/21 02:05:54;;;;;;;7.47;4.78;;;;;;;10.10;89.35;102726.91;4977252;28;20141;-59
2021/09/21 02:08:21;;;;;;;7.90;4.65;;;;;;;10.10;89.76;102727.75;4979472;28;20137;-59
2021/09/21 02:10:47;;;;;;;8.10;4.53;;;;;;;10.05;90.28;102732.44;4974349;28;20169;-58
2021/09/21 02:13:14;;;;;;;7.63;4.72;;;;;;;10.00;90.22;102726.66;4979961;28;20084;-57
2021/09/21 02:15:40;;;;;;;12.68;4.20;;;;;;;10.01;89.12;102735.34;4975106;28;20062;-60
2021/09/21 02:18:07;;;;;;;6.70;4.40;;;;;;;9.98;89.75;102725.91;4977876;28;20507;-60
2021/09/21 02:20:33;;;;;;;7.32;4.72;;;;;;;9.97;90.44;102732.06;4969116;28;20082;-60
2021/09/21 02:23:00;;;;;;;7.60;4.70;;;;;;;9.89;90.25;102739.56;4979952;28;20050;-60
2021/09/21 02:25:26;;;;;;;8.77;5.07;;;;;;;9.83;92.09;102746.03;4981855;28;20515;-59
2021/09/21 02:27:53;;;;;;;9.25;5.25;;;;;;;9.82;92.48;102746.13;4973627;28;20136;-59
2021/09/21 02:30:19;;;;;;;7.78;4.88;;;;;;;9.80;92.47;102740.13;4978657;28;20054;-59
2021/09/21 02:32:49;;;;;;;10.32;4.82;;;;;;;9.81;92.61;102733.97;4966128;28;20149;-60
2021/09/21 02:35:16;;;;;;;9.32;4.65;;;;;;;9.83;93.40;102734.72;4976335;28;20935;-60
2021/09/21 02:37:45;;;;;;;8.10;4.38;;;;;;;9.86;92.78;102742.41;4977382;28;20077;-60
2021/09/21 02:40:12;;;;;;;9.35;5.03;;;;;;;9.81;93.30;102734.81;4978707;28;20081;-60
2021/09/21 02:42:40;;;;;;;7.80;4.97;;;;;;;9.81;94.24;102741.84;4980417;28;20544;-60
2021/09/21 02:45:08;;;;;;;9.98;5.05;;;;;;;9.81;94.53;102742.66;4969632;28;20153;-59
2021/09/21 02:47:34;;;;;;;8.48;5.18;;;;;;;9.80;93.69;102732.28;4976349;28;20162;-60
2021/09/21 02:50:01;;;;;;;6.68;4.20;;;;;;;9.80;93.31;102756.72;4971959;28;20053;-59
2021/09/21 02:52:28;;;;;;;7.13;4.70;;;;;;;9.79;94.75;102769.91;4981259;28;20145;-59
2021/09/21 02:54:54;;;;;;;6.57;4.55;;;;;;;9.75;95.75;102771.03;4972247;28;20565;-59
2021/09/21 02:57:21;;;;;;;7.53;4.80;;;;;;;9.68;97.03;102763.56;4980970;28;20100;-60
2021/09/21 02:59:50;;;;;;;9.73;5.10;;;;;;;9.72;96.14;102765.97;4972947;28;20129;-60
2021/09/21 03:02:17;;;;;;;7.38;4.60;;;;;;;9.75;96.45;102766.63;4968826;28;20046;-60
2021/09/21 03:04:56;;;;;;;10.88;5.50;;;;;;;9.79;95.75;102759.44;4976994;28;20059;-60
2021/09/21 03:07:31;;;;;;;9.52;4.70;;;;;;;9.74;96.50;102748.38;4974539;28;20119;-60
2021/09/21 03:18:24;;;;;;;8.05;4.43;;;;;;;9.78;95.13;102797.03;4973171;28;20555;-58
2021/09/21 03:20:50;;;;;;;7.13;4.70;;;;;;;9.72;95.08;102805.28;4980496;28;20157;-58
2021/09/21 03:23:17;;;;;;;10.15;4.63;;;;;;;9.62;95.57;102805.00;4976577;28;20506;-58
2021/09/21 03:25:44;;;;;;;11.02;5.13;;;;;;;9.56;95.94;102805.34;4978589;28;20054;-59
2021/09/21 03:28:10;;;;;;;9.75;4.95;;;;;;;9.53;96.24;102805.56;4974138;28;20558;-60
2021/09/21 03:30:37;;;;;;;7.22;4.60;;;;;;;9.44;95.74;102802.53;4966632;28;20074;-60
2021/09/21 03:33:03;;;;;;;7.97;4.93;;;;;;;9.42;96.08;102809.63;4978146;28;20066;-60
2021/09/21 03:35:30;;;;;;;8.57;5.05;;;;;;;9.38;96.35;102810.75;4975161;28;20077;-59
2021/09/21 03:37:57;;;;;;;8.07;5.05;;;;;;;9.35;97.39;102807.47;4980333;28;20137;-60
2021/09/21 03:40:23;;;;;;;8.55;5.07;;;;;;;9.30;98.15;102798.09;4971578;28;20058;-61
2021/09/21 03:42:50;;;;;;;12.57;5.32;;;;;;;9.31;98.12;102806.81;4972021;28;20047;-59
2021/09/21 03:45:16;;;;;;;7.88;4.85;;;;;;;9.24;97.58;102815.97;4980015;28;20515;-59
2021/09/21 03:47:43;;;;;;;8.32;5.45;;;;;;;9.19;97.83;102818.84;4970272;28;20156;-58
2021/09/21 03:50:10;;;;;;;10.90;5.45;;;;;;;9.22;99.18;102821.28;4978630;28;20149;-60
2021/09/21 03:52:37;;;;;;;9.27;5.20;;;;;;;9.26;97.52;102820.16;4973111;28;20148;-59
2021/09/21 03:55:04;;;;;;;9.45;5.57;;;;;;;9.21;99.14;102810.88;4977019;28;20101;-61
2021/09/21 03:57:31;;;;;;;7.97;4.90;;;;;;;9.17;100.00;102814.63;4967971;28;20141;-61
2021/09/21 03:59:57;;;;;;;9.13;5.38;;;;;;;9.19;100.00;102820.59;4979523;28;20141;-58
2021/09/21 04:02:24;;;;;;;8.13;4.60;;;;;;;9.24;99.75;102831.66;4976905;28;20123;-59
2021/09/21 04:04:50;;;;;;;8.02;5.03;;;;;;;9.24;98.45;102829.06;4974450;28;20046;-57
2021/09/21 04:07:17;;;;;;;8.20;4.75;;;;;;;9.19;99.88;102824.09;4979353;28;20105;-59
2021/09/21 04:09:43;;;;;;;7.43;5.25;;;;;;;9.15;100.00;102824.34;4967120;28;20112;-59
2021/09/21 04:12:10;;;;;;;8.43;5.55;;;;;;;9.18;100.00;102826.78;4971662;28;20137;-59
2021/09/21 04:14:36;;;;;;;10.05;5.38;;;;;;;9.21;100.00;102823.97;4978212;28;20152;-59
2021/09/21 04:17:03;;;;;;;9.43;5.00;;;;;;;9.24;100.00;102826.44;4975130;28;20137;-59
2021/09/21 04:19:29;;;;;;;9.95;5.10;;;;;;;9.27;100.00;102823.63;4977311;28;20339;-59
2021/09/21 04:21:56;;;;;;;8.27;5.03;;;;;;;9.26;100.00;102824.56;4970879;28;20069;-61
2021/09/21 04:24:22;;;;;;;10.23;5.97;;;;;;;9.30;100.00;102826.91;4971486;28;20101;-62
2021/09/21 04:26:48;;;;;;;9.65;4.97;;;;;;;9.34;100.00;102824.13;4970882;28;20061;-59
2021/09/21 04:29:15;;;;;;;9.02;5.30;;;;;;;9.35;98.74;102834.50;4979153;28;20061;-59
2021/09/21 04:31:44;;;;;;;10.65;5.35;;;;;;;9.35;100.00;102839.75;4974525;28;20085;-62
2021/09/21 04:34:14;;;;;;;;;;;;;;;9.30;100.00;102834.75;4974376;28;20161;-60
2021/09/21 04:36:40;;;;;;;9.95;5.93;;;;;;;9.26;100.00;102835.88;4974151;28;20229;-60
2021/09/21 04:39:07;;;;;;;10.38;5.28;;;;;;;9.22;100.00;102834.38;4968877;28;20089;-60
2021/09/21 04:41:35;;;;;;;8.43;5.05;;;;;;;9.20;100.00;102858.97;4972817;28;20082;-60
2021/09/21 04:44:01;;;;;;;9.73;4.78;;;;;;;9.23;100.00;102871.88;4974631;28;20108;-59
2021/09/21 04:46:28;;;;;;;8.77;5.38;;;;;;;9.21;100.00;102869.34;4976670;28;20768;-61
2021/09/21 04:48:55;;;;;;;7.25;4.95;;;;;;;9.20;100.00;102856.34;4978619;28;20507;-59
2021/09/21 04:51:21;;;;;;;8.02;4.93;;;;;;;9.24;100.00;102856.06;4967955;28;20081;-60
2021/09/21 04:53:48;;;;;;;12.02;5.18;;;;;;;9.29;100.00;102856.66;4975672;28;20082;-59
2021/09/21 04:56:14;;;;;;;8.93;5.72;;;;;;;9.36;100.00;102858.94;4971141;28;20493;-61
2021/09/21 04:58:41;;;;;;;14.20;6.40;;;;;;;9.41;100.00;102857.72;4980890;28;20058;-60
2021/09/21 05:01:07;;;;;;;9.10;4.78;;;;;;;9.48;100.00;102866.91;4968742;28;20055;-61
2021/09/21 05:03:34;;;;;;;9.57;5.88;;;;;;;9.52;100.00;102867.56;4976889;28;20054;-61
2021/09/21 05:06:00;;;;;;;9.55;5.78;;;;;;;9.55;100.00;102877.88;4971017;28;20141;-61
2021/09/21 05:08:27;;;;;;;9.05;5.97;;;;;;;9.55;100.00;102882.28;4976216;28;20085;-60
2021/09/21 05:10:53;;;;;;;8.88;5.78;;;;;;;9.61;100.00;102876.69;4977282;28;20101;-60
2021/09/21 05:13:20;;;;;;;10.15;5.90;;;;;;;9.67;100.00;102881.56;4975100;28;20130;-61
2021/09/21 05:15:46;;;;;;;12.32;6.15;;;;;;;9.67;100.00;102892.88;4972607;28;20081;-56
2021/09/21 05:18:13;;;;;;;10.77;5.35;;;;;;;9.69;100.00;102891.00;4971227;28;20088;-58
2021/09/21 05:20:39;;;;;;;10.68;5.88;;;;;;;9.78;100.00;102892.25;4974415;28;20081;-61
2021/09/21 05:23:06;;;;;;;9.65;5.82;;;;;;;9.86;100.00;102899.69;4973940;28;20333;-61
2021/09/21 05:25:34;;;;;;;9.35;5.75;;;;;;;9.87;100.00;102899.56;4974490;28;20059;-60
2021/09/21 05:28:00;;;;;;;9.90;5.97;;;;;;;9.90;100.00;102886.28;4981854;28;20073;-61
2021/09/21 05:30:27;;;;;;;8.75;5.90;;;;;;;9.96;100.00;102897.31;4967807;28;20786;-59
2021/09/21 05:32:53;;;;;;;10.50;5.95;;;;;;;9.99;100.00;102907.66;4981646;28;20129;-60
2021/09/21 05:35:20;;;;;;;13.18;5.93;;;;;;;10.04;100.00;102905.59;4974837;28;20141;-60
2021/09/21 05:37:47;;;;;;;10.57;6.30;;;;;;;10.04;100.00;102908.22;4983734;28;20133;-59
2021/09/21 05:40:16;;;;;;;9.95;5.90;;;;;;;10.07;100.00;102906.28;4975246;28;20567;-61
2021/09/21 05:42:44;;;;;;;9.38;5.05;;;;;;;10.16;100.00;102907.47;4980263;28;20081;-60
2021/09/21 05:45:11;;;;;;;12.02;5.93;;;;;;;10.18;100.00;102918.72;4975801;28;20128;-61
2021/09/21 05:47:42;;;;;;;7.95;4.90;;;;;;;10.22;100.00;102907.09;4976618;28;20603;-60
2021/09/21 05:50:10;;;;;;;8.80;5.53;;;;;;;10.25;100.00;102912.19;4976953;28;20717;-61
2021/09/21 05:52:37;;;;;;;8.07;5.25;;;;;;;10.32;100.00;102906.59;4976716;28;20081;-60
2021/09/21 05:55:05;;;;;;;9.52;5.72;;;;;;;10.39;100.00;102911.38;4979634;28;20062;-60
2021/09/21 05:57:32;;;;;;;12.68;6.82;;;;;;;10.39;100.00;102911.38;4978508;28;20137;-61
2021/09/21 05:59:58;;;;;;;12.13;6.30;;;;;;;10.39;100.00;102903.50;4973241;28;20832;-61
2021/09/21 06:02:25;;;;;;;13.50;7.03;;;;;;;10.45;100.00;102908.34;4981552;28;20152;-61
2021/09/21 06:04:52;;;;;;;9.80;6.28;;;;;;;10.53;100.00;102909.69;4972853;28;20055;-59
2021/09/21 06:07:19;;;;;;;12.93;5.85;;;;;;;10.60;100.00;102903.94;4981813;28;20054;-61
2021/09/21 06:09:45;;;;;;;10.68;5.95;;;;;;;10.66;100.00;102908.81;4972276;28;20162;-61
2021/09/21 06:12:12;;;;;;;14.57;6.10;;;;;;;10.69;100.00;102913.84;4977205;28;20061;-61
2021/09/21 06:14:38;;;;;;;11.30;6.13;;;;;;;10.74;100.00;102910.09;4970183;28;20078;-61
2021/09/21 06:17:05;;;;;;;9.23;5.47;;;;;;;10.77;100.00;102910.75;4982492;28;20133;-59
2021/09/21 06:19:31;;;;;;;9.95;5.85;;;;;;;10.83;100.00;102914.78;4975439;28;20060;-61
2021/09/21 06:21:58;;;;;;;8.88;5.38;;;;;;;10.88;100.00;102918.81;4976465;28;20233;-60
2021/09/21 06:24:24;;;;;;;10.88;6.25;;;;;;;10.92;100.00;102932.59;4980560;28;20137;-59
2021/09/21 06:26:51;;;;;;;12.85;6.40;;;;;;;10.98;100.00;102939.25;4974134;28;20054;-60
2021/09/21 06:29:17;;;;;;;13.52;6.25;;;;;;;11.04;100.00;102947.56;4981198;28;20133;-59
2021/09/21 06:31:44;;;;;;;11.40;6.60;;;;;;;11.10;100.00;102948.94;4974539;28;20142;-60
2021/09/21 06:34:10;;;;;;;9.80;5.72;;;;;;;11.13;100.00;102946.13;4980294;28;20164;-61
2021/09/21 06:36:37;;;;;;;10.73;6.25;;;;;;;11.22;100.00;102947.31;4975461;28;20136;-61
2021/09/21 06:39:04;;;;;;;9.43;5.80;;;;;;;11.31;100.00;102952.00;4969186;28;20767;-61
2021/09/21 06:41:30;;;;;;;10.10;5.65;;;;;;;11.36;100.00;102952.53;4979101;28;20185;-60
2021/09/21 06:43:57;;;;;;;12.40;7.07;;;;;;;11.40;100.00;102946.13;4974948;28;20054;-60
2021/09/21 06:46:23;;;;;;;10.23;6.68;;;;;;;11.42;100.00;102952.13;4980564;28;20133;-60
2021/09/21 06:48:50;;;;;;;10.52;6.03;;;;;;;11.45;100.00;102953.72;4975415;28;20061;-61
2021/09/21 06:51:19;;;;;;;10.70;6.20;;;;;;;11.50;100.00;102948.16;4979116;28;20104;-60
2021/09/21 06:53:45;;;;;;;;;;;;;;;11.59;100.00;102963.34;4982693;28;20497;-61
2021/09/21 06:56:11;;;;;;;11.13;6.30;;;;;;;11.62;100.00;102953.47;4973947;28;20013;-60
2021/09/21 06:58:39;;;;;;;9.93;6.43;;;;;;;11.67;100.00;102950.53;4978428;28;20113;-61
2021/09/21 07:01:06;;;;;;;11.55;6.57;;;;;;;11.66;100.00;102947.06;4967545;28;20149;-61
2021/09/21 07:03:32;;;;;;;15.90;7.55;;;;;;;11.75;100.00;102945.59;4977608;28;20052;-59
2021/09/21 07:05:59;;;;;;;9.43;5.90;;;;;;;11.85;99.93;102949.28;4973777;28;20054;-61
2021/09/21 07:08:26;;;;;;;9.80;6.15;;;;;;;12.01;100.00;102950.91;4980454;28;20082;-61
2021/09/21 07:10:52;;;;;;;9.68;6.60;;;;;;;12.08;100.00;102954.84;4978438;28;20104;-60
2021/09/21 07:13:19;;;;;;;10.32;6.90;;;;;;;12.16;99.67;102957.78;4968310;28;20396;-59
2021/09/21 07:15:45;;;;;;;9.60;6.25;;;;;;;12.25;100.00;102967.69;4973588;28;20281;-62
2021/09/21 07:18:12;;;;;;;11.52;6.90;;;;;;;12.21;96.66;102960.09;4970968;28;20319;-61
2021/09/21 07:20:38;;;;;;;9.30;6.28;;;;;;;12.30;97.69;102967.34;4978652;28;20112;-62
2021/09/21 07:23:05;;;;;;;11.68;6.75;;;;;;;12.42;99.18;102979.66;4983408;28;20081;-61
2021/09/21 07:25:33;;;;;;;10.60;6.63;;;;;;;12.52;99.91;102982.50;4974860;28;20046;-61
2021/09/21 07:28:02;;;;;;;12.60;6.63;;;;;;;12.56;99.29;102994.50;4975326;28;20431;-61
2021/09/21 07:30:33;;;;;;;10.68;6.50;;;;;;;12.61;98.77;102989.78;4967634;28;20055;-61
2021/09/21 07:33:00;;;;;;;12.13;7.15;;;;;;;12.59;96.70;102983.78;4980109;28;20480;-59
2021/09/21 07:35:27;;;;;;;13.55;7.15;;;;;;;12.58;97.32;102984.69;4972335;28;20089;-60
2021/09/21 07:37:53;;;;;;;14.15;6.70;;;;;;;12.68;97.92;102977.00;4981709;28;20101;-61
2021/09/21 07:40:21;;;;;;;12.02;7.25;;;;;;;12.77;98.18;102978.16;4973050;28;20142;-60
2021/09/21 07:42:48;;;;;;;11.88;6.90;;;;;;;12.88;98.36;102980.91;4977177;28;20050;-61
2021/09/21 07:45:16;;;;;;;12.77;7.32;;;;;;;12.93;96.95;102991.09;4971767;28;20079;-62
2021/09/21 07:47:42;;;;;;;14.93;7.22;;;;;;;12.98;97.46;102999.53;4976933;28;20141;-62
2021/09/21 07:50:11;;;;;;;11.85;7.85;;;;;;;13.07;97.49;103006.75;4977636;28;20417;-62
2021/09/21 07:52:38;;;;;;;12.32;6.47;;;;;;;13.08;96.89;103004.97;4974699;28;20077;-61
2021/09/21 07:55:04;;;;;;;12.80;7.65;;;;;;;13.12;96.38;103016.97;4974255;28;20522;-62
2021/09/21 07:57:33;;;;;;;10.85;6.93;;;;;;;13.13;94.75;103016.00;4967340;28;20058;-61
2021/09/21 08:00:00;;;;;;;13.27;7.75;;;;;;;13.09;95.16;103010.13;4975268;28;20054;-62
2021/09/21 08:02:26;;;;;;;9.45;6.82;;;;;;;13.18;94.61;103009.47;4983115;28;20655;-60
2021/09/21 08:04:54;;;;;;;12.18;7.05;;;;;;;13.17;92.24;103007.81;4972153;28;20157;-60
2021/09/21 08:07:21;;;;;;;11.63;6.60;;;;;;;13.27;92.62;103007.97;4979054;28;20112;-61
2021/09/21 08:09:48;;;;;;;11.73;8.02;;;;;;;13.40;93.22;103007.94;4967490;28;20843;-60
2021/09/21 08:12:15;;;;;;;13.02;7.25;;;;;;;13.48;91.68;103012.66;4976166;28;20078;-61
2021/09/21 08:14:45;;;;;;;13.25;7.25;;;;;;;13.59;90.62;103028.56;4970944;28;20078;-60
2021/09/21 08:17:11;;;;;;;15.00;7.10;;;;;;;13.64;90.46;103031.69;4981255;28;20140;-57
2021/09/21 08:19:38;;;;;;;11.00;7.25;;;;;;;13.70;89.44;103044.44;4976756;28;20510;-59
2021/09/21 08:22:04;;;;;;;11.30;6.47;;;;;;;13.85;89.27;103056.47;4976287;28;20054;-61
2021/09/21 08:24:31;;;;;;;18.70;7.15;;;;;;;14.02;89.07;103060.50;4972157;28;20651;-60
2021/09/21 08:26:58;;;;;;;12.63;6.18;;;;;;;14.13;88.10;103058.84;4970367;28;20487;-59
2021/09/21 08:29:24;;;;;;;10.25;5.82;;;;;;;14.16;85.02;103062.09;4973621;28;20081;-60
2021/09/21 08:31:51;;;;;;;10.07;6.18;;;;;;;14.33;85.37;103066.13;4976843;28;20547;-61
2021/09/21 08:34:18;;;;;;;12.55;7.30;;;;;;;14.44;84.89;103058.25;4974841;28;20058;-60
2021/09/21 08:36:44;;;;;;;9.93;5.75;;;;;;;14.55;83.57;103061.84;4983186;28;20781;-61
2021/09/21 08:39:11;;;;;;;11.35;6.70;;;;;;;14.60;81.85;103054.44;4962507;28;20179;-62
2021/09/21 08:41:39;;;;;;;11.40;6.95;;;;;;;14.72;80.40;103060.56;4977739;28;20152;-61
2021/09/21 08:44:05;;;;;;;10.88;6.53;;;;;;;14.72;81.49;103064.06;4969483;28;20792;-62
2021/09/21 08:46:32;;;;;;;9.68;6.75;;;;;;;14.69;82.01;103060.81;4979864;28;20077;-60
2021/09/21 08:48:58;;;;;;;12.20;7.75;;;;;;;14.73;82.93;103054.34;4975594;28;20069;-62
2021/09/21 08:51:25;;;;;;;11.02;6.03;;;;;;;14.71;80.36;103056.25;4971443;28;20050;-60
2021/09/21 08:53:51;;;;;;;10.35;6.15;;;;;;;14.78;77.70;103062.75;4970091;28;20338;-61
2021/09/21 08:56:19;;;;;;;10.13;6.18;;;;;;;14.77;77.08;103061.88;4974795;28;20161;-61
2021/09/21 08:59:07;;;;;;;11.18;6.25;;;;;;;14.95;79.27;103064.88;4978133;28;20086;-62
2021/09/21 09:01:45;;;;;;;7.88;4.53;;;;;;;15.14;79.81;103066.94;4972699;28;20146;-58
2021/09/21 09:04:14;;;;;;;10.05;5.75;;;;;;;15.20;76.85;103066.44;4977444;28;20614;-62
2021/09/21 09:06:54;;;;;;;11.10;5.65;;;;;;;15.25;74.83;103059.94;4968138;28;20058;-60
2021/09/21 09:09:22;;;;;;;13.07;5.25;;;;;;;15.40;76.38;103064.84;4975863;28;20078;-60
2021/09/21 09:11:54;;;;;;;7.78;5.32;;;;;;;15.63;78.16;103065.63;4972526;28;20073;-62
2021/09/21 09:14:30;;;;;;;12.60;6.03;;;;;;;15.77;76.44;103053.94;4980114;28;20501;-62
2021/09/21 09:17:07;;;;;;;7.70;4.72;;;;;;;15.86;69.60;103055.00;4973421;28;20087;-60
2021/09/21 09:19:45;;;;;;;7.18;4.28;;;;;;;15.95;69.18;103050.75;4968204;28;20137;-62
2021/09/21 09:22:25;;;;;;;9.20;4.68;;;;;;;15.94;67.44;103051.72;4971798;28;20145;-61
2021/09/21 09:24:55;;;;;;;8.57;4.15;;;;;;;16.09;66.02;103045.16;4971114;28;20141;-61
2021/09/21 09:27:38;;;;;;;5.72;3.67;;;;;;;16.28;68.99;103048.88;4976245;28;20077;-62
2021/09/21 09:30:10;;;;;;;7.72;4.90;;;;;;;16.38;66.91;103053.25;4972499;28;20133;-60
2021/09/21 09:32:49;;;;;;;10.02;4.47;;;;;;;16.39;63.21;103046.19;4975549;28;20159;-60
2021/09/21 09:35:27;;;;;;;8.10;5.50;;;;;;;16.52;64.45;103046.78;4965815;28;20082;-61
2021/09/21 09:37:58;;;;;;;9.18;5.22;;;;;;;16.66;64.31;103053.56;4974825;28;20061;-61
2021/09/21 09:40:27;;;;;;;7.45;4.25;;;;;;;16.77;62.17;103057.94;4969219;28;20058;-61
2021/09/21 09:42:55;;;;;;;9.38;4.22;;;;;;;16.91;62.44;103065.56;4976126;28;20130;-60
2021/09/21 09:45:36;;;;;;;7.15;4.28;;;;;;;16.99;60.27;103063.09;4976249;28;20158;-61
2021/09/21 09:48:05;;;;;;;6.78;4.22;;;;;;;17.07;60.85;103053.59;4964922;28;20058;-62
2021/09/21 09:50:34;;;;;;;6.15;3.83;;;;;;;17.11;58.39;103062.97;4969533;28;20161;-61
2021/09/21 09:53:07;;;;;;;6.75;3.85;;;;;;;17.25;58.03;103059.09;4970039;28;20109;-62
2021/09/21 09:55:36;;;;;;;5.72;3.40;;;;;;;17.11;55.98;103061.19;4974097;28;20065;-61
2021/09/21 09:58:04;;;;;;;5.32;3.30;;;;;;;17.24;55.63;103055.63;4971033;28;20058;-62
2021/09/21 10:00:31;;;;;;;6.60;3.97;;;;;;;17.43;56.63;103062.78;4978960;28;20054;-62
2021/09/21 10:02:59;;;;;;;8.87;3.90;;;;;;;17.59;57.78;103065.72;4973870;28;20062;-62
2021/09/21 10:05:29;;;;;;;7.32;3.75;;;;;;;17.75;58.12;103054.56;4965748;28;20055;-61
2021/09/21 10:07:57;;;;;;;5.45;3.47;;;;;;;17.90;56.05;103051.53;4977791;28;20562;-62
2021/09/21 10:10:25;;;;;;;6.65;3.00;;;;;;;17.90;53.72;103052.34;4966904;28;20140;-62
2021/09/21 10:12:52;;;;;;;5.90;2.80;;;;;;;17.70;49.56;103048.84;4978317;28;20121;-62
2021/09/21 10:15:19;;;;;;;4.72;2.60;;;;;;;17.80;48.67;103051.50;4966736;28;20611;-62
2021/09/21 10:17:53;;;;;;;6.95;2.55;;;;;;;17.96;51.47;103046.47;4975516;28;20050;-62
2021/09/21 10:20:35;;;;;;;4.70;2.33;;;;;;;18.17;53.17;103051.63;4973012;28;20181;-61
2021/09/21 10:23:06;;;;;;;3.60;2.17;;;;;;;18.18;49.24;103055.94;4975866;28;20142;-62
2021/09/21 10:25:35;;;;;;;4.75;2.38;;;;;;;18.22;47.33;103053.84;4979329;28;20150;-62
2021/09/21 10:28:20;;;;;;;7.25;2.40;;;;;;;17.94;45.63;103060.88;4975204;28;20715;-60
2021/09/21 10:30:54;;;;;;;5.82;2.78;;;;;;;18.05;47.44;103059.88;4970687;28;20082;-61
2021/09/21 10:33:25;;;;;;;6.18;3.00;;;;;;;18.21;49.23;103067.28;4970380;28;20169;-61
2021/09/21 10:35:53;;;;;;;9.20;4.28;;;;;;;18.42;49.07;103054.63;4977159;28;20057;-61
2021/09/21 10:38:21;;;;;;;5.07;3.50;;;;;;;18.63;50.05;103066.91;4972070;28;20482;-62
2021/09/21 10:41:00;;;;;;;12.73;4.20;;;;;;;18.88;50.53;103063.63;4973501;28;20413;-62
2021/09/21 10:43:34;;;;;;;6.47;4.07;;;;;;;19.11;51.40;103060.53;4970612;28;20411;-62
2021/09/21 10:46:22;;;;;;;7.40;3.80;;;;;;;19.29;50.24;103060.63;4973221;28;20113;-62
2021/09/21 10:48:49;;;;;;;8.38;4.47;;;;;;;19.30;50.88;103062.28;4978321;28;20050;-62
2021/09/21 10:51:16;;;;;;;5.43;3.63;;;;;;;19.36;48.93;103059.00;4972455;28;20138;-62
2021/09/21 10:53:43;;;;;;;6.95;4.00;;;;;;;19.55;49.64;103064.19;4978653;28;20149;-61
2021/09/21 10:56:12;;;;;;;9.05;4.32;;;;;;;19.32;48.19;103057.63;4975644;28;20109;-61
2021/09/21 10:58:39;;;;;;;7.10;4.10;;;;;;;19.65;50.39;103065.94;4972869;28;20708;-61
2021/09/21 11:01:06;;;;;;;8.00;3.97;;;;;;;19.73;49.93;103058.91;4972041;28;20081;-61
2021/09/21 11:03:36;;;;;;;9.30;4.03;;;;;;;19.85;49.41;103062.16;4978718;28;20068;-61
2021/09/21 11:06:03;;;;;;;7.40;3.00;;;;;;;19.93;49.17;103064.06;4978882;28;20105;-61
2021/09/21 11:08:31;;;;;;;5.55;3.30;;;;;;;20.03;47.85;103063.97;4970961;28;20108;-59
2021/09/21 11:11:00;;;;;;;7.60;3.60;;;;;;;19.95;45.83;103054.94;4975600;28;20141;-61
2021/09/21 11:13:31;;;;;;;5.40;3.13;;;;;;;20.26;48.56;103043.81;4968066;28;20058;-61
2021/09/21 11:16:00;;;;;;;4.75;2.90;;;;;;;20.51;47.47;103042.13;4978657;28;20057;-60
2021/09/21 11:18:27;;;;;;;4.93;2.90;;;;;;;20.47;45.64;103039.97;4973057;28;20062;-61
2021/09/21 11:20:58;;;;;;;6.13;2.80;;;;;;;20.62;45.35;103034.88;4978395;28;20051;-61
2021/09/21 11:23:29;;;;;;;4.63;2.95;;;;;;;20.54;45.62;103040.97;4976483;28;20496;-60
2021/09/21 11:25:58;;;;;;;6.25;3.42;;;;;;;20.57;45.31;103030.00;4966549;28;20488;-60
2021/09/21 11:28:26;;;;;;;8.10;3.42;;;;;;;20.57;46.66;103038.00;4973864;28;20056;-61
2021/09/21 11:30:55;;;;;;;5.18;3.20;;;;;;;20.77;46.64;103043.13;4970777;28;20133;-61
2021/09/21 11:33:34;;;;;;;6.05;3.17;;;;;;;20.91;46.12;103042.50;4979079;28;20855;-61
2021/09/21 11:36:06;;;;;;;4.63;2.90;;;;;;;20.92;44.65;103036.19;4973023;28;20050;-61
2021/09/21 11:38:36;;;;;;;5.00;2.75;;;;;;;21.14;46.08;103038.25;4973440;28;20050;-61
2021/09/21 11:41:03;;;;;;;6.22;3.42;;;;;;;21.30;45.18;103040.13;4966583;28;20650;-60